createdAt,value
2019-05-15T00:00:39.961Z,10.00
2019-05-15T00:03:08.832Z,10.00
2019-05-15T00:05:38.995Z,9.90
2019-05-15T00:08:09.222Z,9.90
2019-05-15T00:10:39.211Z,9.90
2019-05-15T00:13:09.275Z,9.90
2019-05-15T00:15:40.074Z,9.80
2019-05-15T00:18:08.878Z,9.80
2019-05-15T00:20:59.443Z,9.80
2019-05-15T00:23:29.198Z,9.80
2019-05-15T00:25:58.475Z,9.70
2019-05-15T00:28:27.975Z,9.70
2019-05-15T00:30:58.247Z,9.70
2019-05-15T00:33:48.272Z,9.70
2019-05-15T00:36:19.185Z,9.70
2019-05-15T00:38:48.326Z,9.60
2019-05-15T00:41:18.483Z,9.60
2019-05-15T00:43:49.386Z,9.60
2019-05-15T00:46:18.345Z,9.60
2019-05-15T00:48:48.758Z,9.60
2019-05-15T00:51:19.465Z,9.50
2019-05-15T00:53:48.378Z,9.50
2019-05-15T00:56:19.265Z,9.50
2019-05-15T00:58:48.180Z,9.50
2019-05-15T01:01:19.087Z,9.50
2019-05-15T01:03:49.324Z,9.50
2019-05-15T01:06:29.905Z,9.40
2019-05-15T01:09:10.730Z,9.40
2019-05-15T01:11:39.333Z,9.40
2019-05-15T01:14:11.936Z,9.30
2019-05-15T01:16:38.466Z,9.30
2019-05-15T01:19:09.151Z,9.20
2019-05-15T01:21:38.523Z,9.30
2019-05-15T01:24:08.412Z,9.20
2019-05-15T01:26:38.537Z,9.20
2019-05-15T01:29:09.113Z,9.20
2019-05-15T01:31:38.060Z,9.20
2019-05-15T01:34:08.867Z,9.10
2019-05-15T01:36:58.949Z,9.10
2019-05-15T01:39:28.918Z,9.10
2019-05-15T01:41:58.524Z,9.10
2019-05-15T01:44:28.683Z,9.00
2019-05-15T01:46:59.053Z,9.00
2019-05-15T01:49:28.079Z,9.00
2019-05-15T01:51:58.586Z,9.00
2019-05-15T01:54:28.898Z,8.90
2019-05-15T01:56:58.770Z,8.90
2019-05-15T01:59:28.387Z,8.90
2019-05-15T02:01:59.027Z,8.90
2019-05-15T02:04:28.973Z,8.90
2019-05-15T02:06:58.893Z,8.80
2019-05-15T02:09:28.092Z,8.80
2019-05-15T02:11:58.099Z,8.80
2019-05-15T02:14:28.509Z,8.80
2019-05-15T02:16:59.149Z,8.80
2019-05-15T02:19:28.759Z,8.70
2019-05-15T02:21:58.004Z,8.70
2019-05-15T02:24:28.346Z,8.60
2019-05-15T02:26:58.847Z,8.60
2019-05-15T02:29:28.593Z,8.60
2019-05-15T02:31:59.170Z,8.60
2019-05-15T02:34:30.085Z,8.60
2019-05-15T02:37:00.103Z,8.50
2019-05-15T02:39:29.090Z,8.50
2019-05-15T02:41:59.531Z,8.50
2019-05-15T02:44:29.174Z,8.50
2019-05-15T02:46:58.803Z,8.40
2019-05-15T02:49:30.206Z,8.40
2019-05-15T02:52:00.191Z,8.40
2019-05-15T02:54:29.937Z,8.40
2019-05-15T02:56:59.121Z,8.30
2019-05-15T02:59:29.129Z,8.30
2019-05-15T03:01:59.477Z,8.20
2019-05-15T03:04:29.290Z,8.20
2019-05-15T03:07:00.285Z,8.20
2019-05-15T03:09:29.852Z,8.20
2019-05-15T03:11:58.754Z,8.10
2019-05-15T03:14:29.090Z,8.10
2019-05-15T03:16:59.676Z,8.10
2019-05-15T03:19:29.858Z,8.00
2019-05-15T03:21:59.844Z,8.10
2019-05-15T03:24:29.082Z,8.00
2019-05-15T03:26:59.346Z,8.00
2019-05-15T03:29:29.194Z,8.00
2019-05-15T03:32:33.690Z,8.00
2019-05-15T03:34:56.163Z,7.90
2019-05-15T03:37:22.189Z,7.90
2019-05-15T03:39:51.716Z,7.90
2019-05-15T03:42:20.748Z,7.90
2019-05-15T03:44:50.113Z,7.80
2019-05-15T03:47:19.558Z,7.80
2019-05-15T03:49:49.402Z,7.80
2019-05-15T03:52:18.973Z,7.80
2019-05-15T03:54:49.581Z,7.80
2019-05-15T03:57:22.629Z,7.80
2019-05-15T03:59:49.025Z,7.80
2019-05-15T04:02:19.352Z,7.70
2019-05-15T04:04:50.145Z,7.70
2019-05-15T04:07:19.059Z,7.70
2019-05-15T04:09:49.365Z,7.70
2019-05-15T04:12:19.645Z,7.70
2019-05-15T04:14:50.007Z,7.70
2019-05-15T04:17:19.778Z,7.70
2019-05-15T04:19:49.673Z,7.70
2019-05-15T04:22:19.814Z,7.70
2019-05-15T04:24:49.524Z,7.70
2019-05-15T04:27:19.701Z,7.80
2019-05-15T04:29:49.250Z,7.80
2019-05-15T04:32:20.012Z,7.80
2019-05-15T04:34:48.973Z,7.80
2019-05-15T04:37:18.900Z,7.80
2019-05-15T04:39:49.077Z,7.90
2019-05-15T04:42:20.212Z,7.90
2019-05-15T04:44:49.461Z,7.90
2019-05-15T04:47:19.207Z,8.10
2019-05-15T04:49:50.441Z,8.00
2019-05-15T04:52:19.465Z,8.10
2019-05-15T04:54:49.330Z,8.20
2019-05-15T04:57:19.325Z,8.20
2019-05-15T04:59:49.718Z,8.30
2019-05-15T05:02:26.566Z,8.30
2019-05-15T05:04:49.433Z,8.40
2019-05-15T05:07:18.903Z,8.50
2019-05-15T05:09:48.913Z,8.50
2019-05-15T05:12:19.283Z,8.60
2019-05-15T05:14:48.467Z,8.60
2019-05-15T05:17:19.580Z,8.70
2019-05-15T05:19:49.689Z,8.70
2019-05-15T05:22:18.719Z,8.80
2019-05-15T05:24:47.877Z,8.90
2019-05-15T05:27:18.247Z,9.00
2019-05-15T05:29:48.082Z,9.10
2019-05-15T05:32:28.822Z,9.20
2019-05-15T05:34:48.336Z,9.30
2019-05-15T05:37:18.437Z,9.30
2019-05-15T05:39:48.358Z,9.40
2019-05-15T05:42:18.537Z,9.50
2019-05-15T05:44:48.905Z,9.60
2019-05-15T05:47:18.266Z,9.70
2019-05-15T05:49:48.855Z,9.70
2019-05-15T05:52:18.579Z,9.80
2019-05-15T05:54:48.964Z,9.90
2019-05-15T05:57:19.320Z,10.00
2019-05-15T05:59:48.987Z,10.10
2019-05-15T06:02:18.569Z,10.20
2019-05-15T06:04:50.390Z,10.30
2019-05-15T06:07:18.994Z,10.40
2019-05-15T06:09:48.661Z,10.50
2019-05-15T06:12:28.221Z,10.60
2019-05-15T06:14:59.262Z,10.60
2019-05-15T06:17:28.851Z,10.70
2019-05-15T06:19:58.594Z,10.70
2019-05-15T06:22:27.699Z,10.80
2019-05-15T06:24:57.937Z,10.90
2019-05-15T06:27:27.963Z,11.00
2019-05-15T06:29:58.016Z,11.10
2019-05-15T06:32:28.926Z,11.20
2019-05-15T06:34:57.823Z,11.40
2019-05-15T06:37:28.614Z,11.50
2019-05-15T06:39:58.709Z,11.60
2019-05-15T06:42:28.327Z,11.60
2019-05-15T06:44:58.867Z,11.70
2019-05-15T06:47:28.418Z,11.70
2019-05-15T06:49:57.974Z,11.70
2019-05-15T06:52:28.481Z,11.90
2019-05-15T06:54:59.310Z,12.10
2019-05-15T06:57:29.398Z,12.10
2019-05-15T06:59:58.053Z,12.20
2019-05-15T07:02:28.505Z,12.30
2019-05-15T07:04:58.364Z,12.40
2019-05-15T07:07:28.777Z,12.40
2019-05-15T07:09:58.315Z,12.50
2019-05-15T07:12:28.121Z,12.60
2019-05-15T07:14:58.188Z,12.80
2019-05-15T07:17:28.747Z,12.80
2019-05-15T07:19:59.202Z,13.00
2019-05-15T07:22:28.900Z,13.10
2019-05-15T07:24:58.305Z,13.20
2019-05-15T07:27:28.346Z,13.30
2019-05-15T07:29:58.425Z,13.40
2019-05-15T07:32:28.561Z,13.60
2019-05-15T07:34:57.948Z,13.50
2019-05-15T07:37:28.827Z,13.60
2019-05-15T07:39:59.140Z,13.70
2019-05-15T07:42:29.099Z,13.80
2019-05-15T07:44:58.866Z,13.80
2019-05-15T07:47:29.202Z,13.90
2019-05-15T07:49:58.895Z,13.90
2019-05-15T07:52:28.866Z,14.00
2019-05-15T07:54:58.219Z,14.20
2019-05-15T07:57:29.714Z,14.30
2019-05-15T07:59:58.807Z,14.40
2019-05-15T08:02:28.447Z,14.50
2019-05-15T08:04:57.667Z,14.60
2019-05-15T08:07:29.573Z,14.70
2019-05-15T08:09:59.050Z,14.70
2019-05-15T08:12:28.395Z,14.80
2019-05-15T08:14:58.277Z,14.80
2019-05-15T08:17:28.984Z,14.90
2019-05-15T08:19:58.271Z,15.00
2019-05-15T08:22:28.609Z,15.00
2019-05-15T08:25:30.515Z,15.00
2019-05-15T08:27:48.459Z,15.10
2019-05-15T08:30:18.387Z,15.20
2019-05-15T08:32:51.012Z,15.30
2019-05-15T08:35:19.092Z,15.40
2019-05-15T08:37:50.047Z,15.40
2019-05-15T08:40:19.457Z,15.50
2019-05-15T08:42:56.265Z,15.60
2019-05-15T08:45:19.123Z,15.70
2019-05-15T08:47:49.253Z,15.60
2019-05-15T08:50:19.259Z,15.70
2019-05-15T08:52:48.697Z,15.80
2019-05-15T08:55:20.001Z,15.80
2019-05-15T08:57:55.656Z,15.80
2019-05-15T09:00:18.747Z,15.90
2019-05-15T09:02:48.864Z,16.00
2019-05-15T09:05:18.861Z,16.00
2019-05-15T09:07:48.636Z,16.20
2019-05-15T09:10:18.364Z,16.30
2019-05-15T09:12:50.173Z,16.30
2019-05-15T09:15:18.504Z,16.30
2019-05-15T09:17:48.809Z,16.30
2019-05-15T09:20:19.415Z,16.20
2019-05-15T09:22:48.984Z,16.20
2019-05-15T09:25:19.451Z,16.10
2019-05-15T09:27:48.901Z,16.10
2019-05-15T09:30:18.228Z,16.20
2019-05-15T09:32:48.487Z,16.20
2019-05-15T09:35:21.507Z,16.10
2019-05-15T09:37:50.091Z,16.10
2019-05-15T09:40:18.843Z,16.30
2019-05-15T09:42:48.710Z,16.50
2019-05-15T09:45:18.436Z,16.50
2019-05-15T09:47:48.398Z,16.60
2019-05-15T09:50:19.407Z,16.50
2019-05-15T09:52:50.204Z,16.60
2019-05-15T09:55:18.677Z,16.80
2019-05-15T09:57:49.129Z,16.70
2019-05-15T10:00:18.941Z,16.80
2019-05-15T10:02:50.847Z,16.80
2019-05-15T10:05:19.472Z,16.90
2019-05-15T10:07:49.598Z,16.90
2019-05-15T10:10:19.268Z,16.60
2019-05-15T10:12:49.527Z,16.60
2019-05-15T10:15:18.723Z,16.70
2019-05-15T10:17:50.945Z,16.80
2019-05-15T10:20:18.453Z,16.80
2019-05-15T10:22:48.419Z,16.90
2019-05-15T10:25:18.953Z,17.10
2019-05-15T10:27:48.763Z,17.20
2019-05-15T10:30:18.910Z,17.10
2019-05-15T10:32:48.744Z,17.20
2019-05-15T10:35:27.512Z,17.30
2019-05-15T10:37:51.957Z,17.20
2019-05-15T10:40:20.681Z,17.20
2019-05-15T10:42:49.723Z,17.00
2019-05-15T10:45:19.283Z,17.00
2019-05-15T10:47:49.644Z,17.00
2019-05-15T10:50:22.441Z,17.10
2019-05-15T10:52:51.065Z,17.30
2019-05-15T10:55:19.677Z,17.20
2019-05-15T10:57:48.416Z,17.20
2019-05-15T11:00:19.523Z,17.30
2019-05-15T11:02:48.968Z,17.30
2019-05-15T11:05:18.089Z,17.30
2019-05-15T11:07:48.284Z,17.30
2019-05-15T11:10:18.593Z,17.20
2019-05-15T11:13:08.810Z,17.30
2019-05-15T11:15:40.463Z,17.20
2019-05-15T11:18:09.274Z,17.00
2019-05-15T11:20:40.830Z,17.10
2019-05-15T11:23:15.700Z,17.10
2019-05-15T11:25:44.953Z,17.40
2019-05-15T11:28:13.662Z,17.30
2019-05-15T11:30:42.264Z,17.40
2019-05-15T11:33:10.960Z,17.50
2019-05-15T11:35:56.441Z,17.30
2019-05-15T11:38:10.335Z,17.50
2019-05-15T11:40:39.299Z,17.60
2019-05-15T11:43:08.674Z,17.60
2019-05-15T11:45:39.080Z,17.60
2019-05-15T11:48:09.111Z,17.50
2019-05-15T11:50:40.053Z,17.50
2019-05-15T11:53:08.852Z,17.80
2019-05-15T11:55:38.714Z,18.00
2019-05-15T11:58:09.397Z,18.00
2019-05-15T12:00:40.837Z,18.00
2019-05-15T12:03:09.439Z,18.00
2019-05-15T12:05:38.808Z,18.00
2019-05-15T12:08:08.703Z,18.10
2019-05-15T12:10:39.408Z,18.00
2019-05-15T12:13:09.824Z,17.90
2019-05-15T12:15:39.019Z,17.70
2019-05-15T12:18:08.848Z,17.80
2019-05-15T12:20:38.915Z,17.90
2019-05-15T12:25:39.330Z,18.10
2019-05-15T12:28:09.450Z,18.10
2019-05-15T12:30:40.175Z,18.30
2019-05-15T12:33:09.936Z,18.30
2019-05-15T12:35:40.090Z,18.30
2019-05-15T12:38:10.305Z,18.50
2019-05-15T13:00:54.123Z,18.40
2019-05-15T13:03:22.750Z,18.30
2019-05-15T13:05:51.703Z,18.30
2019-05-15T13:08:20.372Z,18.40
2019-05-15T13:10:49.012Z,18.20
2019-05-15T13:13:18.733Z,18.20
2019-05-15T13:15:48.259Z,18.30
2019-05-15T13:18:18.064Z,18.30
2019-05-15T13:20:49.066Z,18.20
2019-05-15T13:23:17.175Z,18.40
2019-05-15T13:25:48.268Z,18.60
2019-05-15T13:28:18.329Z,18.60
2019-05-15T13:30:48.900Z,18.60
2019-05-15T13:33:17.401Z,18.40
2019-05-15T13:35:48.476Z,18.50
2019-05-15T13:38:18.036Z,18.50
2019-05-15T13:40:48.172Z,18.60
2019-05-15T13:43:18.595Z,18.70
2019-05-15T13:45:49.114Z,18.60
2019-05-15T13:48:20.015Z,18.60
2019-05-15T13:50:48.666Z,18.70
2019-05-15T13:53:18.383Z,18.60
2019-05-15T13:55:48.422Z,18.70
2019-05-15T13:58:17.246Z,18.80
2019-05-15T14:00:45.997Z,18.70
2019-05-15T14:03:14.658Z,18.60
2019-05-15T14:05:45.201Z,18.60
2019-05-15T14:08:30.071Z,18.80
2019-05-15T14:10:58.734Z,19.10
2019-05-15T14:13:28.837Z,19.00
2019-05-15T14:15:58.228Z,18.90
2019-05-15T14:18:28.673Z,18.70
2019-05-15T14:20:58.439Z,18.80
2019-05-15T14:23:29.467Z,18.90
2019-05-15T14:25:58.983Z,19.00
2019-05-15T14:28:28.460Z,19.00
2019-05-15T14:30:58.622Z,18.80
2019-05-15T14:33:29.177Z,18.70
2019-05-15T14:35:57.970Z,18.90
2019-05-15T14:38:28.852Z,18.90
2019-05-15T14:40:58.877Z,19.00
2019-05-15T14:43:29.326Z,19.20
2019-05-15T14:45:58.661Z,19.20
2019-05-15T14:48:28.146Z,19.20
2019-05-15T14:50:58.356Z,19.00
2019-05-15T14:53:48.912Z,18.90
2019-05-15T14:56:18.535Z,18.90
2019-05-15T14:58:48.063Z,18.90
2019-05-15T15:01:18.515Z,18.90
2019-05-15T15:03:48.784Z,19.00
2019-05-15T15:06:18.215Z,19.20
2019-05-15T15:08:48.789Z,19.40
2019-05-15T15:11:17.929Z,19.20
2019-05-15T15:13:46.701Z,19.10
2019-05-15T15:16:15.354Z,19.20
2019-05-15T15:18:44.012Z,19.30
2019-05-15T15:21:12.638Z,19.30
2019-05-15T15:23:41.391Z,19.30
2019-05-15T15:26:11.489Z,19.40
2019-05-15T15:28:40.437Z,19.40
2019-05-15T15:31:09.128Z,19.30
2019-05-15T15:33:39.243Z,19.20
2019-05-15T15:36:08.877Z,19.30
2019-05-15T15:38:43.683Z,19.30
2019-05-15T15:41:08.597Z,19.50
2019-05-15T15:43:38.715Z,19.70
2019-05-15T15:46:08.609Z,19.80
2019-05-15T15:48:39.033Z,19.80
2019-05-15T15:51:09.133Z,19.70
2019-05-15T15:53:39.050Z,19.90
2019-05-15T15:56:10.692Z,19.90
2019-05-15T15:58:38.411Z,20.00
2019-05-15T16:01:09.103Z,20.20
2019-05-15T16:03:38.004Z,20.10
2019-05-15T16:06:06.859Z,20.40
2019-05-15T16:08:50.835Z,20.50
2019-05-15T16:11:07.962Z,20.30
2019-05-15T16:13:38.448Z,20.30
2019-05-15T16:16:08.592Z,20.30
2019-05-15T16:18:38.330Z,20.50
2019-05-15T16:21:08.164Z,20.80
2019-05-15T16:23:38.585Z,20.70
2019-05-15T16:26:09.329Z,21.00
2019-05-15T16:28:39.682Z,21.40
2019-05-15T16:31:08.280Z,21.40
2019-05-15T16:33:38.852Z,21.20
2019-05-15T16:36:08.780Z,20.90
2019-05-15T16:38:38.931Z,20.90
2019-05-15T16:41:29.006Z,21.10
2019-05-15T16:43:57.809Z,21.30
2019-05-15T16:46:28.216Z,21.50
2019-05-15T16:48:58.462Z,21.00
2019-05-15T16:51:28.803Z,21.00
2019-05-15T16:53:58.137Z,21.00
2019-05-15T16:56:28.401Z,21.00
2019-05-15T16:58:59.524Z,20.50
2019-05-15T17:01:28.943Z,20.50
2019-05-15T17:03:57.864Z,20.50
2019-05-15T17:06:28.120Z,20.60
2019-05-15T17:08:57.936Z,20.50
2019-05-15T17:11:28.920Z,20.50
2019-05-15T17:13:59.273Z,20.60
2019-05-15T17:16:27.613Z,20.50
2019-05-15T17:18:58.162Z,20.70
2019-05-15T17:21:28.426Z,20.20
2019-05-15T17:23:58.183Z,19.80
2019-05-15T17:26:28.819Z,19.40
2019-05-15T17:29:33.721Z,19.10
2019-05-15T17:31:41.126Z,18.80
2019-05-15T17:34:09.833Z,18.60
2019-05-15T17:36:38.443Z,18.30
2019-05-15T17:39:08.864Z,17.90
2019-05-15T17:41:39.015Z,17.60
2019-05-15T17:44:08.208Z,17.40
2019-05-15T17:46:38.481Z,17.40
2019-05-15T17:49:28.031Z,17.10
2019-05-15T17:51:58.216Z,17.10
2019-05-15T17:54:28.774Z,17.10
2019-05-15T17:56:58.461Z,17.00
2019-05-15T17:59:28.643Z,17.00
2019-05-15T18:01:59.539Z,16.70
2019-05-15T18:04:28.255Z,16.60
2019-05-15T18:06:59.103Z,16.50
2019-05-15T18:09:28.035Z,16.50
2019-05-15T18:11:58.648Z,16.50
2019-05-15T18:14:27.200Z,16.40
2019-05-15T18:16:58.195Z,16.40
2019-05-15T18:19:26.233Z,16.40
2019-05-15T18:21:54.977Z,16.40
2019-05-15T18:24:23.596Z,16.40
2019-05-15T18:26:52.190Z,16.40
2019-05-15T18:29:20.898Z,16.40
2019-05-15T18:31:49.531Z,16.40
2019-05-15T18:34:18.793Z,16.30
2019-05-15T18:36:48.459Z,16.20
2019-05-15T18:39:17.354Z,16.10
2019-05-15T18:41:48.343Z,16.10
2019-05-15T18:44:18.484Z,16.00
2019-05-15T18:46:49.721Z,15.90
2019-05-15T18:49:18.311Z,15.90
2019-05-15T18:51:47.904Z,15.80
2019-05-15T18:54:18.776Z,15.80
2019-05-15T18:56:48.977Z,15.80
2019-05-15T18:59:17.790Z,15.80
2019-05-15T19:01:47.975Z,15.70
2019-05-15T19:04:18.326Z,15.60
2019-05-15T19:06:47.292Z,15.50
2019-05-15T19:09:16.169Z,15.40
2019-05-15T19:11:44.767Z,15.40
2019-05-15T19:14:13.356Z,15.30
2019-05-15T19:16:42.179Z,15.30
2019-05-15T19:19:11.034Z,15.30
2019-05-15T19:21:39.669Z,15.20
2019-05-15T19:24:08.285Z,15.20
2019-05-15T19:26:36.945Z,15.20
2019-05-15T19:29:08.068Z,15.10
2019-05-15T19:31:35.976Z,15.00
2019-05-15T19:34:04.579Z,15.00
2019-05-15T19:36:33.160Z,14.90
2019-05-15T19:39:01.742Z,14.90
2019-05-15T19:41:30.350Z,14.80
2019-05-15T19:43:59.240Z,14.80
2019-05-15T19:46:28.271Z,14.70
2019-05-15T19:48:58.143Z,14.70
2019-05-15T19:51:28.995Z,14.60
2019-05-15T19:53:58.660Z,14.60
2019-05-15T19:56:27.588Z,14.60
2019-05-15T19:58:58.181Z,14.50
2019-05-15T20:01:28.190Z,14.40
2019-05-15T20:03:58.733Z,14.40
2019-05-15T20:06:28.091Z,14.30
2019-05-15T20:08:58.676Z,14.20
2019-05-15T20:11:27.902Z,14.20
2019-05-15T20:13:58.293Z,14.10
2019-05-15T20:16:28.393Z,14.00
2019-05-15T20:18:58.121Z,13.90
2019-05-15T20:21:28.960Z,13.90
2019-05-15T20:23:58.021Z,13.80
2019-05-15T20:26:28.628Z,13.70
2019-05-15T20:28:57.851Z,13.70
2019-05-15T20:31:28.394Z,13.60
2019-05-15T20:34:05.229Z,13.50
2019-05-15T20:36:29.443Z,13.50
2019-05-15T20:38:58.845Z,13.50
2019-05-15T20:41:27.597Z,13.40
2019-05-15T20:43:58.146Z,13.30
2019-05-15T20:46:28.588Z,13.30
2019-05-15T20:48:58.060Z,13.20
2019-05-15T20:51:28.849Z,13.20
2019-05-15T20:53:57.828Z,13.10
2019-05-15T20:56:28.230Z,13.00
2019-05-15T20:58:58.252Z,13.00
2019-05-15T21:01:28.826Z,13.00
2019-05-15T21:03:59.546Z,12.90
2019-05-15T21:06:28.398Z,12.90
2019-05-15T21:08:57.859Z,12.80
2019-05-15T21:11:27.205Z,12.80
2019-05-15T21:13:58.135Z,12.80
2019-05-15T21:16:27.954Z,12.80
2019-05-15T21:18:57.683Z,12.70
2019-05-15T21:21:28.249Z,12.70
2019-05-15T21:23:57.977Z,12.70
2019-05-15T21:26:29.111Z,12.60
2019-05-15T21:28:58.639Z,12.60
2019-05-15T21:31:27.539Z,12.50
2019-05-15T21:33:56.185Z,12.50
2019-05-15T21:36:44.113Z,12.50
2019-05-15T21:39:12.757Z,12.40
2019-05-15T21:41:41.930Z,12.30
2019-05-15T21:44:24.091Z,12.30
2019-05-15T21:46:44.204Z,12.20
2019-05-15T21:49:12.825Z,12.20
2019-05-15T21:51:41.522Z,12.10
2019-05-15T21:54:10.450Z,12.10
2019-05-15T21:56:39.436Z,12.10
2019-05-15T21:59:08.368Z,12.00
2019-05-15T22:01:39.620Z,12.00
2019-05-15T22:04:07.565Z,11.90
2019-05-15T22:06:36.267Z,11.90
2019-05-15T22:09:07.811Z,11.80
2019-05-15T22:11:36.691Z,11.80
2019-05-15T22:14:08.094Z,11.70
2019-05-15T22:16:36.910Z,11.70
2019-05-15T22:19:05.876Z,11.70
2019-05-15T22:21:34.626Z,11.60
2019-05-15T22:24:03.264Z,11.60
2019-05-15T22:26:32.055Z,11.60
2019-05-15T22:29:00.758Z,11.50
2019-05-15T22:31:29.687Z,11.50
2019-05-15T22:33:58.585Z,11.50
2019-05-15T22:36:28.086Z,11.40
2019-05-15T22:38:58.920Z,11.40
2019-05-15T22:41:28.482Z,11.40
2019-05-15T22:43:57.238Z,11.30
2019-05-15T22:46:25.874Z,11.30
2019-05-15T22:48:54.932Z,11.20
2019-05-15T22:51:23.646Z,11.20
2019-05-15T22:53:54.434Z,11.20
2019-05-15T22:56:23.014Z,11.20
2019-05-15T22:58:51.698Z,11.20
2019-05-15T23:01:20.480Z,11.10
2019-05-15T23:03:49.195Z,11.10
2019-05-15T23:06:18.313Z,11.00
2019-05-15T23:08:48.861Z,11.00
2019-05-15T23:11:18.216Z,11.00
2019-05-15T23:13:48.356Z,11.00
2019-05-15T23:16:18.196Z,10.90
2019-05-15T23:18:48.432Z,10.90
2019-05-15T23:21:18.372Z,10.90
2019-05-15T23:23:48.751Z,10.80
2019-05-15T23:26:18.100Z,10.80
2019-05-15T23:28:48.104Z,10.80
2019-05-15T23:31:18.922Z,10.80
2019-05-15T23:33:50.301Z,10.70
2019-05-15T23:36:18.988Z,10.70
2019-05-15T23:38:48.075Z,10.60
2019-05-15T23:41:18.962Z,10.60
2019-05-15T23:43:48.276Z,10.60
2019-05-15T23:46:18.405Z,10.60
2019-05-15T23:48:50.218Z,10.50
2019-05-15T23:51:19.147Z,10.50
2019-05-15T23:53:48.489Z,10.50
2019-05-15T23:56:19.129Z,10.40
2019-05-15T23:58:48.143Z,10.40
